Time;durP1;ratioP1;P1;durP2;ratioP2;P2;SDS_P1;SDS_P2;PMS_P1;PMS_P2;Temp;Humidity;BMP_temperature;BMP_pressure;BME280_temperature;BME280_humidity;BME280_pressure;Samples;Min_cycle;Max_cycle;Signal;HPM_P1;HPM_P2
2023/08/24 00:00:29;;;;;;;11.10;10.30;;;;;;;26.92;42.76;95207.28;6089664;28;110201;-63
2023/08/24 00:03:32;;;;;;;10.73;9.82;;;;;;;26.93;42.77;95198.09;6083544;28;109863;-63
2023/08/24 00:06:36;;;;;;;11.25;10.35;;;;;;;26.94;43.02;95207.72;6085287;28;112998;-63
2023/08/24 00:09:40;;;;;;;10.77;9.88;;;;;;;26.93;42.79;95203.47;6088270;28;112502;-63
2023/08/24 00:12:44;;;;;;;10.93;10.10;;;;;;;26.93;42.76;95198.88;6091683;28;111152;-63
2023/08/24 00:15:48;;;;;;;11.53;10.53;;;;;;;26.93;42.66;95201.56;6081006;28;110039;-63
2023/08/24 00:18:51;;;;;;;11.00;10.10;;;;;;;26.93;42.60;95198.09;6096390;28;111074;-62
2023/08/24 00:21:54;;;;;;;11.27;10.38;;;;;;;26.84;43.52;95198.19;6078118;28;109835;-63
2023/08/24 00:24:58;;;;;;;10.98;10.18;;;;;;;26.72;43.59;95198.97;6096299;28;109779;-63
2023/08/24 00:28:02;;;;;;;11.30;10.20;;;;;;;26.70;43.56;95187.75;6083716;28;110827;-63
2023/08/24 00:31:05;;;;;;;11.00;10.10;;;;;;;26.64;43.21;95190.97;6088038;28;111056;-63
2023/08/24 00:34:09;;;;;;;11.40;10.60;;;;;;;26.62;43.69;95188.59;6090905;28;110954;-63
2023/08/24 00:37:12;;;;;;;11.68;10.85;;;;;;;26.60;43.79;95185.47;6086552;28;110898;-64
2023/08/24 00:40:16;;;;;;;11.35;10.50;;;;;;;26.57;43.84;95180.75;6083194;28;109839;-71
2023/08/24 00:43:23;;;;;;;11.90;10.80;;;;;;;26.58;43.89;95193.06;6092530;28;110024;-71
2023/08/24 00:46:28;;;;;;;11.75;10.85;;;;;;;26.55;44.00;95183.78;6097988;28;109982;-71
2023/08/24 00:49:31;;;;;;;11.13;10.33;;;;;;;26.67;43.22;95190.31;6076643;28;110140;-69
2023/08/24 00:52:34;;;;;;;10.60;9.80;;;;;;;26.72;43.51;95190.13;6089915;28;109897;-71
2023/08/24 00:55:39;;;;;;;11.25;10.35;;;;;;;26.68;43.45;95198.03;6099678;28;109733;-70
2023/08/24 00:58:43;;;;;;;11.60;10.70;;;;;;;26.74;43.50;95194.03;6084289;28;109945;-69
2023/08/24 01:01:48;;;;;;;11.60;10.70;;;;;;;26.73;43.79;95203.22;6068710;28;109936;-72
2023/08/24 01:04:51;;;;;;;11.43;10.53;;;;;;;26.60;43.46;95208.84;6095460;28;109799;-70
2023/08/24 01:07:54;;;;;;;11.30;10.30;;;;;;;26.65;44.06;95204.06;6093306;28;110086;-71
2023/08/24 01:11:07;;;;;;;11.67;10.77;;;;;;;26.70;43.73;95195.78;6087690;28;110258;-70
2023/08/24 01:14:18;;;;;;;12.50;11.40;;;;;;;26.54;44.85;95211.72;6082745;28;109912;-71
2023/08/24 01:17:27;;;;;;;12.70;11.70;;;;;;;26.40;45.90;95208.53;6093383;28;110237;-71
2023/08/24 01:20:33;;;;;;;13.10;12.20;;;;;;;26.22;45.74;95215.97;6098404;28;109676;-70
2023/08/24 01:23:44;;;;;;;12.60;11.50;;;;;;;26.11;46.48;95203.25;6081790;28;109798;-71
2023/08/24 01:26:50;;;;;;;12.70;11.80;;;;;;;26.01;45.81;95209.78;6082497;28;112384;-71
2023/08/24 01:29:56;;;;;;;12.93;11.85;;;;;;;26.01;46.07;95196.38;6071515;28;110341;-71
2023/08/24 01:32:59;;;;;;;12.77;11.68;;;;;;;25.96;46.05;95205.38;6087105;28;110740;-71
2023/08/24 01:36:03;;;;;;;12.98;11.80;;;;;;;26.17;45.96;95204.63;6085158;28;109605;-70
2023/08/24 01:39:12;;;;;;;12.05;11.15;;;;;;;26.36;45.25;95217.56;6094065;28;112486;-70
2023/08/24 01:42:22;;;;;;;12.00;11.10;;;;;;;26.56;44.95;95204.13;6087073;28;109930;-71
2023/08/24 01:45:30;;;;;;;12.40;11.40;;;;;;;26.63;44.56;95206.31;6079130;28;109814;-71
2023/08/24 01:48:37;;;;;;;12.00;11.10;;;;;;;26.65;44.23;95196.00;6069450;28;109762;-69
2023/08/24 01:51:41;;;;;;;12.07;11.18;;;;;;;26.66;44.28;95210.22;6088779;28;111062;-71
2023/08/24 01:54:45;;;;;;;11.45;10.65;;;;;;;26.69;44.51;95201.50;6095901;28;109796;-70
2023/08/24 01:57:50;;;;;;;12.40;11.40;;;;;;;26.60;44.39;95196.19;6074496;28;109776;-70
2023/08/24 02:00:53;;;;;;;12.50;11.40;;;;;;;26.62;44.30;95198.56;6085665;28;109802;-71
2023/08/24 02:03:56;;;;;;;11.93;11.05;;;;;;;26.63;45.02;95198.25;6072496;28;109493;-70
2023/08/24 02:07:00;;;;;;;12.90;11.90;;;;;;;26.68;44.50;95192.66;6081779;28;109732;-70
2023/08/24 02:10:03;;;;;;;12.18;11.27;;;;;;;26.73;44.74;95199.75;6074338;28;112805;-70
2023/08/24 02:13:08;;;;;;;12.20;11.20;;;;;;;26.73;44.80;95202.44;6075362;28;109965;-70
2023/08/24 02:16:12;;;;;;;11.88;11.05;;;;;;;26.74;44.09;95212.06;6082436;28;110849;-72
2023/08/24 02:19:15;;;;;;;12.65;11.75;;;;;;;26.72;44.28;95204.34;6091321;28;109779;-72
2023/08/24 02:22:18;;;;;;;11.63;10.80;;;;;;;26.75;44.13;95202.88;6000776;28;1978951;-72
2023/08/24 02:25:21;;;;;;;12.25;11.25;;;;;;;26.77;44.47;95211.38;6098266;28;109580;-70
2023/08/24 02:28:26;;;;;;;11.85;10.95;;;;;;;26.77;44.66;95206.78;6090751;28;109969;-72
2023/08/24 02:31:29;;;;;;;12.53;11.53;;;;;;;26.78;44.65;95200.31;6081234;28;111070;-70
2023/08/24 02:34:32;;;;;;;11.80;10.80;;;;;;;26.78;44.41;95210.25;6093584;28;109735;-71
2023/08/24 02:37:35;;;;;;;12.10;11.10;;;;;;;26.77;44.00;95214.84;6088600;28;109583;-71
2023/08/24 02:40:38;;;;;;;12.90;11.80;;;;;;;26.66;45.04;95213.69;6096393;28;109731;-72
2023/08/24 02:43:43;;;;;;;12.70;11.70;;;;;;;26.63;44.78;95217.03;6079979;28;109933;-74
2023/08/24 02:46:49;;;;;;;12.80;11.80;;;;;;;26.63;44.74;95217.03;6090169;28;110242;-73
2023/08/24 02:49:53;;;;;;;12.67;11.67;;;;;;;26.66;43.98;95210.22;6091059;28;111173;-72
2023/08/24 02:52:57;;;;;;;12.97;11.97;;;;;;;26.69;44.37;95207.66;6080148;28;109860;-72
2023/08/24 02:56:01;;;;;;;12.20;11.23;;;;;;;26.68;43.97;95199.94;6084413;28;109595;-72
2023/08/24 02:59:06;;;;;;;12.60;11.63;;;;;;;26.51;43.94;95201.63;6094412;28;112312;-63
2023/08/24 03:02:09;;;;;;;12.60;11.60;;;;;;;26.08;44.69;95190.50;6094322;28;109873;-63
2023/08/24 03:05:12;;;;;;;13.13;12.02;;;;;;;25.84;45.54;95191.09;6097844;28;109966;-62
2023/08/24 03:08:15;;;;;;;12.52;11.40;;;;;;;25.82;45.62;95198.69;6084833;28;109746;-62
2023/08/24 03:11:18;;;;;;;12.00;11.10;;;;;;;25.94;45.07;95188.06;6085270;28;110279;-62
2023/08/24 03:14:23;;;;;;;12.90;11.90;;;;;;;26.21;44.89;95194.78;6090435;28;109807;-61
2023/08/24 03:17:26;;;;;;;12.90;11.90;;;;;;;26.40;44.30;95197.03;6080304;28;109863;-63
2023/08/24 03:20:29;;;;;;;19.40;12.13;;;;;;;26.60;44.16;95208.84;6105494;28;110125;-64
2023/08/24 03:23:32;;;;;;;12.70;11.47;;;;;;;26.64;44.10;95202.50;6099881;28;109578;-63
2023/08/24 03:26:36;;;;;;;15.77;14.40;;;;;;;26.65;44.09;95204.06;6097616;28;110042;-62
2023/08/24 03:29:40;;;;;;;14.57;13.27;;;;;;;26.68;44.26;95208.78;6078232;28;109680;-63
2023/08/24 03:32:43;;;;;;;13.63;12.63;;;;;;;26.69;44.85;95214.91;6087670;28;109631;-63
2023/08/24 03:35:46;;;;;;;14.55;13.38;;;;;;;26.67;45.12;95227.91;6085290;28;109740;-63
2023/08/24 03:38:50;;;;;;;13.73;12.63;;;;;;;26.70;44.41;95216.50;6085298;28;109812;-63
2023/08/24 03:41:53;;;;;;;13.25;12.25;;;;;;;26.68;44.02;95226.78;6084177;28;110860;-64
2023/08/24 03:44:57;;;;;;;13.30;12.30;;;;;;;26.66;43.92;95237.06;6102244;28;109921;-63
2023/08/24 03:48:00;;;;;;;12.87;11.87;;;;;;;26.66;43.70;95237.06;6084175;28;110343;-63
2023/08/24 03:51:03;;;;;;;13.13;12.05;;;;;;;26.60;44.26;95238.38;6080703;28;109780;-65
2023/08/24 03:54:07;;;;;;;14.23;13.02;;;;;;;26.64;45.20;95256.19;6085167;28;109948;-63
2023/08/24 03:57:10;;;;;;;14.20;13.00;;;;;;;26.70;45.16;95262.13;6082463;28;110786;-62
2023/08/24 04:00:16;;;;;;;13.43;12.43;;;;;;;26.67;44.60;95255.53;6092252;28;111554;-61
2023/08/24 04:03:19;;;;;;;14.98;13.68;;;;;;;26.33;46.34;95266.53;6072055;28;110892;-61
2023/08/24 04:06:23;;;;;;;14.95;13.50;;;;;;;26.12;47.26;95266.53;6088669;28;109678;-61
2023/08/24 04:09:27;;;;;;;15.68;14.27;;;;;;;25.44;48.23;95258.50;6084472;28;109934;-61
2023/08/24 04:12:30;;;;;;;15.00;13.50;;;;;;;25.75;48.60;95268.13;6088388;28;110034;-63
2023/08/24 04:15:35;;;;;;;15.52;13.40;;;;;;;26.17;47.62;95256.38;6067932;28;109793;-64
2023/08/24 04:18:40;;;;;;;15.07;13.85;;;;;;;24.90;49.63;95247.47;6093828;28;111256;-62
2023/08/24 04:21:43;;;;;;;14.65;13.35;;;;;;;24.75;49.39;95250.63;6098950;28;109948;-62
2023/08/24 04:24:46;;;;;;;16.10;14.70;;;;;;;25.15;49.36;95256.50;6088835;28;110331;-66
2023/08/24 04:27:50;;;;;;;15.02;13.73;;;;;;;25.18;48.69;95244.38;6086073;28;110043;-61
2023/08/24 04:30:56;;;;;;;14.85;13.55;;;;;;;25.41;48.60;95245.75;6088260;28;109779;-61
2023/08/24 04:34:00;;;;;;;13.20;12.10;;;;;;;25.77;47.69;95239.09;6088616;28;109817;-63
2023/08/24 04:37:03;;;;;;;12.98;11.95;;;;;;;26.02;47.14;95246.22;6093128;28;109958;-62
2023/08/24 04:40:08;;;;;;;13.20;12.20;;;;;;;26.14;46.75;95258.94;6096672;28;109821;-62
2023/08/24 04:43:11;;;;;;;12.68;11.70;;;;;;;26.26;45.58;95262.47;6087295;28;109873;-62
2023/08/24 04:46:15;;;;;;;12.73;11.60;;;;;;;26.13;45.57;95262.72;6097169;28;109953;-62
2023/08/24 04:49:18;;;;;;;12.27;11.38;;;;;;;26.11;44.91;95257.69;6101080;28;109910;-63
2023/08/24 04:52:22;;;;;;;12.70;11.80;;;;;;;26.10;45.62;95256.13;6095605;28;109802;-62
2023/08/24 04:55:25;;;;;;;12.80;11.70;;;;;;;26.15;44.89;95247.88;6111180;28;109945;-62
2023/08/24 04:58:28;;;;;;;14.30;13.10;;;;;;;26.18;45.96;95249.91;6082277;28;112557;-61
2023/08/24 05:01:33;;;;;;;13.93;12.73;;;;;;;26.21;46.21;95248.44;6082848;28;109800;-61
2023/08/24 05:04:36;;;;;;;12.95;11.75;;;;;;;26.28;46.20;95252.19;6103849;28;109569;-62
2023/08/24 05:07:39;;;;;;;12.57;11.48;;;;;;;26.27;45.46;95256.00;6098396;28;109987;-61
2023/08/24 05:10:42;;;;;;;12.80;11.80;;;;;;;26.22;46.46;95266.94;6099630;28;109976;-62
2023/08/24 05:13:46;;;;;;;13.17;12.17;;;;;;;26.11;46.09;95271.09;6099132;28;110817;-62
2023/08/24 05:16:51;;;;;;;14.20;12.93;;;;;;;25.81;46.89;95267.63;6104490;28;109781;-62
2023/08/24 05:19:54;;;;;;;14.85;13.25;;;;;;;24.95;49.02;95274.06;6099409;28;110816;-63
2023/08/24 05:22:57;;;;;;;14.85;13.35;;;;;;;24.92;49.22;95269.34;6081466;28;109936;-68
2023/08/24 05:26:02;;;;;;;14.13;12.77;;;;;;;25.41;47.43;95269.88;6099074;28;109845;-66
2023/08/24 05:29:05;;;;;;;13.60;12.40;;;;;;;25.74;46.74;95269.25;6107713;28;110290;-70
2023/08/24 05:32:09;;;;;;;14.65;13.30;;;;;;;25.92;47.10;95263.47;6091747;28;109946;-67
2023/08/24 05:35:12;;;;;;;14.00;12.60;;;;;;;26.07;46.66;95262.13;6097698;28;109841;-69
2023/08/24 05:38:16;;;;;;;14.40;13.00;;;;;;;26.16;46.36;95272.78;6090269;28;109981;-68
2023/08/24 05:41:19;;;;;;;15.00;13.50;;;;;;;26.24;46.42;95274.66;6087167;28;109838;-68
2023/08/24 05:44:22;;;;;;;15.00;13.60;;;;;;;26.29;46.14;95277.13;6081466;28;109818;-69
2023/08/24 05:47:27;;;;;;;15.30;13.90;;;;;;;26.33;46.37;95288.00;6084088;28;110031;-69
2023/08/24 05:50:30;;;;;;;15.70;14.40;;;;;;;26.37;46.58;95281.63;6088099;28;109870;-68
2023/08/24 05:53:33;;;;;;;15.35;14.05;;;;;;;26.42;46.55;95288.72;6110666;28;109780;-69
2023/08/24 05:56:36;;;;;;;16.10;14.80;;;;;;;26.44;46.29;95289.19;6088962;28;109846;-68
2023/08/24 05:59:39;;;;;;;16.60;15.02;;;;;;;26.45;46.31;95282.69;6086454;28;109996;-67
2023/08/24 06:02:44;;;;;;;15.75;14.40;;;;;;;26.48;46.64;95295.47;6088350;28;109763;-68
2023/08/24 06:05:47;;;;;;;21.30;19.57;;;;;;;26.50;46.88;95298.59;6093554;28;109957;-67
2023/08/24 06:08:50;;;;;;;42.30;38.72;;;;;;;26.52;46.61;95299.84;6076655;28;109958;-68
2023/08/24 06:11:53;;;;;;;31.63;29.13;;;;;;;26.57;46.33;95298.88;6097280;28;111882;-68
2023/08/24 06:14:57;;;;;;;25.90;23.80;;;;;;;26.64;46.00;95288.41;6094659;28;109646;-68
2023/08/24 06:18:01;;;;;;;23.05;21.25;;;;;;;26.70;46.12;95292.44;6095796;28;109922;-67
2023/08/24 06:21:04;;;;;;;23.10;21.13;;;;;;;26.78;45.70;95299.66;6080014;28;109959;-69
2023/08/24 06:24:07;;;;;;;22.67;20.70;;;;;;;26.86;46.43;95303.38;6086947;28;109754;-68
2023/08/24 06:27:10;;;;;;;21.25;19.70;;;;;;;26.89;45.92;95296.59;6087061;28;108818;-67
2023/08/24 06:30:13;;;;;;;21.52;19.80;;;;;;;26.92;46.21;95301.28;6076287;28;109961;-69
2023/08/24 06:33:19;;;;;;;22.25;20.40;;;;;;;26.94;46.58;95296.38;6103001;28;109720;-68
2023/08/24 06:36:22;;;;;;;21.77;19.87;;;;;;;26.95;46.52;95297.94;6099919;28;110948;-68
2023/08/24 06:39:25;;;;;;;20.57;18.93;;;;;;;26.95;46.20;95301.41;6105648;28;109761;-68
2023/08/24 06:42:28;;;;;;;25.70;23.60;;;;;;;26.96;46.72;95300.28;6076459;28;110729;-67
2023/08/24 06:45:32;;;;;;;22.23;20.33;;;;;;;27.03;45.96;95302.41;6100391;28;110061;-67
2023/08/24 06:48:37;;;;;;;21.55;19.73;;;;;;;27.09;46.16;95298.44;6097105;28;110115;-67
2023/08/24 06:51:41;;;;;;;19.05;17.48;;;;;;;27.20;45.83;95304.94;6086737;28;109948;-68
2023/08/24 06:54:44;;;;;;;18.63;16.83;;;;;;;27.29;45.82;95296.81;6076022;28;109922;-68
2023/08/24 06:57:49;;;;;;;18.50;16.70;;;;;;;27.28;45.72;95295.25;6097380;28;110328;-68
2023/08/24 07:00:55;;;;;;;18.47;16.60;;;;;;;27.28;45.69;95304.09;6086034;28;111576;-67
2023/08/24 07:04:00;;;;;;;17.70;15.90;;;;;;;27.37;46.06;95288.66;6064908;28;110635;-68
2023/08/24 07:07:03;;;;;;;17.50;15.70;;;;;;;27.49;45.77;95295.19;6104600;28;110746;-69
2023/08/24 07:10:07;;;;;;;17.60;15.90;;;;;;;27.60;45.47;95294.41;6106047;28;109932;-67
2023/08/24 07:13:11;;;;;;;17.07;15.27;;;;;;;27.62;45.06;95289.47;6091424;28;110051;-68
2023/08/24 07:16:14;;;;;;;16.10;14.50;;;;;;;27.69;45.10;95288.91;6087332;28;110234;-68
2023/08/24 07:19:18;;;;;;;15.33;13.90;;;;;;;27.81;45.02;95288.91;6106509;28;110112;-68
2023/08/24 07:22:21;;;;;;;16.33;14.73;;;;;;;27.92;45.02;95289.28;6100155;28;109841;-67
2023/08/24 07:25:24;;;;;;;15.02;13.63;;;;;;;28.01;44.54;95277.28;6098033;28;108685;-67
2023/08/24 07:28:28;;;;;;;16.10;14.50;;;;;;;28.01;44.26;95274.59;6086807;28;109919;-67
2023/08/24 07:31:31;;;;;;;16.45;14.75;;;;;;;28.04;44.88;95273.13;6092337;28;110265;-68
2023/08/24 07:34:36;;;;;;;14.52;13.13;;;;;;;28.16;44.21;95275.81;6102865;28;110063;-66
2023/08/24 07:37:40;;;;;;;15.30;14.00;;;;;;;28.25;43.90;95275.69;6089025;28;110195;-67
2023/08/24 07:40:43;;;;;;;14.98;13.57;;;;;;;28.21;44.55;95269.41;6096174;28;110846;-67
2023/08/24 07:43:46;;;;;;;14.95;13.55;;;;;;;28.19;44.21;95267.03;6094026;28;109799;-69
2023/08/24 07:46:49;;;;;;;14.95;13.55;;;;;;;28.22;44.07;95274.44;6106319;28;109567;-66
2023/08/24 07:49:53;;;;;;;15.15;13.85;;;;;;;28.26;44.14;95263.81;6097470;28;109846;-68
2023/08/24 07:52:57;;;;;;;14.43;13.13;;;;;;;28.31;44.46;95260.84;6090200;28;110362;-68
2023/08/24 07:56:01;;;;;;;14.43;12.93;;;;;;;28.40;44.06;95264.22;6097370;28;109978;-68
2023/08/24 07:59:04;;;;;;;14.40;13.00;;;;;;;28.49;43.55;95256.78;6089611;28;109750;-68
2023/08/24 08:02:07;;;;;;;14.60;13.30;;;;;;;28.54;43.64;95263.84;6084408;28;109770;-67
2023/08/24 08:05:12;;;;;;;14.23;12.93;;;;;;;28.57;43.53;95263.19;6106666;28;109872;-68
2023/08/24 08:08:16;;;;;;;14.03;12.83;;;;;;;28.54;43.32;95261.16;6089409;28;109961;-68
2023/08/24 08:11:19;;;;;;;15.10;13.80;;;;;;;28.51;43.70;95264.53;6089357;28;109957;-68
2023/08/24 08:14:23;;;;;;;14.25;12.95;;;;;;;28.47;43.68;95274.41;6102405;28;110064;-68
2023/08/24 08:17:27;;;;;;;13.85;12.55;;;;;;;28.52;43.09;95271.47;6080359;28;110013;-68
2023/08/24 08:20:32;;;;;;;13.70;12.40;;;;;;;28.60;43.84;95267.88;6074114;28;109534;-69
2023/08/24 08:23:35;;;;;;;14.15;12.95;;;;;;;28.63;43.54;95273.34;6096637;28;109694;-69
2023/08/24 08:26:38;;;;;;;13.45;12.35;;;;;;;28.67;43.73;95267.28;6097180;28;109898;-68
2023/08/24 08:29:41;;;;;;;14.02;12.65;;;;;;;28.70;43.13;95271.97;6106229;28;109927;-70
2023/08/24 08:32:45;;;;;;;14.27;12.98;;;;;;;28.77;43.37;95258.72;6098332;28;111492;-70
2023/08/24 08:35:50;;;;;;;13.75;12.60;;;;;;;28.87;42.74;95258.22;6084454;28;110030;-69
2023/08/24 08:38:53;;;;;;;14.30;13.10;;;;;;;28.91;42.67;95257.19;6100112;28;109856;-70
2023/08/24 08:41:56;;;;;;;14.15;12.80;;;;;;;28.91;42.88;95243.72;6094344;28;109941;-69
2023/08/24 08:45:02;;;;;;;13.65;12.55;;;;;;;28.96;42.66;95245.38;6089693;28;109912;-69
2023/08/24 08:48:07;;;;;;;13.60;12.50;;;;;;;29.00;42.73;95243.56;6079062;28;109747;-70
2023/08/24 08:51:14;;;;;;;14.27;13.07;;;;;;;29.02;42.65;95246.69;6089339;28;109814;-71
2023/08/24 08:54:17;;;;;;;14.00;12.90;;;;;;;29.04;42.51;95239.06;6110612;28;109938;-69
2023/08/24 08:57:23;;;;;;;14.10;12.98;;;;;;;29.10;42.81;95234.22;6086049;28;109979;-69
2023/08/24 09:00:28;;;;;;;12.73;11.73;;;;;;;29.14;42.46;95227.00;6083086;28;109808;-69
2023/08/24 09:03:32;;;;;;;13.90;12.70;;;;;;;29.18;42.29;95227.88;6102020;28;109747;-70
2023/08/24 09:06:37;;;;;;;14.70;13.20;;;;;;;29.15;42.65;95215.88;6097400;28;109980;-68
2023/08/24 09:09:40;;;;;;;12.83;11.63;;;;;;;29.19;42.19;95214.03;6094139;28;111314;-69
2023/08/24 09:12:44;;;;;;;13.50;12.30;;;;;;;29.22;41.92;95207.16;6088452;28;110243;-70
2023/08/24 09:15:47;;;;;;;12.95;11.85;;;;;;;29.20;41.93;95206.72;6096002;28;109916;-69
2023/08/24 09:18:50;;;;;;;12.98;11.77;;;;;;;29.21;41.99;95201.00;6096122;28;109975;-69
2023/08/24 09:21:58;;;;;;;13.63;12.32;;;;;;;29.22;42.05;95199.84;6085353;28;111859;-70
2023/08/24 09:25:03;;;;;;;13.60;12.40;;;;;;;29.27;41.99;95192.66;6111072;28;109813;-69
2023/08/24 09:28:08;;;;;;;13.02;12.02;;;;;;;29.26;42.06;95188.41;6092685;28;109887;-69
2023/08/24 09:31:13;;;;;;;13.65;12.40;;;;;;;29.28;41.96;95180.75;6083052;28;110936;-68
2023/08/24 09:34:20;;;;;;;13.80;12.60;;;;;;;29.31;42.07;95180.81;6081771;28;110022;-69
2023/08/24 09:37:25;;;;;;;13.75;12.45;;;;;;;29.32;41.79;95178.91;6087883;28;109891;-69
2023/08/24 09:40:28;;;;;;;14.15;12.95;;;;;;;29.31;41.59;95167.34;6087910;28;109800;-71
2023/08/24 09:43:31;;;;;;;15.70;14.30;;;;;;;28.76;42.65;95160.97;6088826;28;109828;-70
2023/08/24 09:46:36;;;;;;;16.38;15.07;;;;;;;28.45;42.63;95153.59;6104009;28;109953;-69
2023/08/24 09:49:39;;;;;;;16.20;14.80;;;;;;;28.50;42.79;95157.94;6099680;28;109820;-69
2023/08/24 09:52:44;;;;;;;15.75;14.48;;;;;;;28.82;42.41;95156.09;6087646;28;109892;-69
2023/08/24 09:55:54;;;;;;;15.20;13.93;;;;;;;28.97;42.12;95152.63;6087677;28;109859;-70
2023/08/24 09:59:01;;;;;;;14.93;13.73;;;;;;;29.06;42.06;95155.16;6098356;28;109991;-71
2023/08/24 10:02:11;;;;;;;15.13;14.02;;;;;;;29.17;41.71;95156.22;6096000;28;109853;-67
2023/08/24 10:05:20;;;;;;;14.43;13.15;;;;;;;29.19;41.98;95152.03;6066746;28;109973;-67
2023/08/24 10:08:48;;;;;;;14.43;13.30;;;;;;;29.24;41.31;95157.19;6102827;28;109890;-68
2023/08/24 10:11:55;;;;;;;15.15;13.95;;;;;;;29.28;41.49;95151.09;6097559;28;109849;-67
2023/08/24 10:15:02;;;;;;;14.90;13.80;;;;;;;29.23;41.18;95139.44;6102995;28;110241;-67
2023/08/24 10:18:06;;;;;;;14.35;13.35;;;;;;;29.23;41.68;95139.44;6091065;28;109983;-67
2023/08/24 10:21:09;;;;;;;14.50;13.40;;;;;;;29.23;41.72;95139.44;6087037;28;112239;-67
2023/08/24 10:24:15;;;;;;;13.93;12.83;;;;;;;29.24;41.90;95129.44;6087140;28;109770;-68
2023/08/24 10:27:19;;;;;;;14.30;13.15;;;;;;;29.27;41.40;95131.44;6089706;28;109855;-68
2023/08/24 10:30:24;;;;;;;14.30;13.30;;;;;;;29.24;41.16;95119.44;6091907;28;109819;-67
2023/08/24 10:33:28;;;;;;;14.80;13.60;;;;;;;29.18;41.18;95120.81;6086573;28;110129;-67
2023/08/24 10:36:33;;;;;;;14.35;13.15;;;;;;;29.12;41.54;95127.63;6085700;28;109757;-66
2023/08/24 10:39:44;;;;;;;15.03;13.80;;;;;;;29.13;41.21;95128.41;6091600;28;111084;-67
2023/08/24 10:42:47;;;;;;;14.88;13.57;;;;;;;29.17;40.99;95115.78;6090797;28;109781;-67
2023/08/24 10:45:58;;;;;;;15.00;13.90;;;;;;;29.18;41.14;95104.66;6098967;28;109731;-67
2023/08/24 10:49:05;;;;;;;14.60;13.50;;;;;;;29.17;41.33;95110.41;6090264;28;110584;-68
2023/08/24 10:52:22;;;;;;;14.50;13.40;;;;;;;29.11;41.41;95109.09;6080718;28;109814;-68
2023/08/24 10:55:28;;;;;;;14.48;13.43;;;;;;;29.11;41.20;95112.59;6098015;28;110019;-69
2023/08/24 10:58:35;;;;;;;15.20;14.10;;;;;;;29.09;41.07;95112.16;6090596;28;110075;-66
2023/08/24 11:01:40;;;;;;;14.70;13.50;;;;;;;29.09;40.99;95095.22;6090661;28;109827;-67
2023/08/24 11:05:16;;;;;;;15.07;13.87;;;;;;;29.03;41.17;95102.72;6096589;28;110020;-67
2023/08/24 11:08:19;;;;;;;14.40;13.30;;;;;;;29.00;41.44;95092.66;6105554;28;109954;-67
2023/08/24 11:11:25;;;;;;;14.83;13.77;;;;;;;28.99;41.09;95093.78;6107809;28;110002;-67
2023/08/24 11:14:30;;;;;;;15.88;14.68;;;;;;;28.98;41.72;95092.22;6094715;28;109936;-67
2023/08/24 11:17:34;;;;;;;14.60;13.50;;;;;;;28.97;41.60;95079.09;6098621;28;109887;-67
2023/08/24 11:20:37;;;;;;;15.52;14.25;;;;;;;28.92;41.79;95080.94;6089640;28;109995;-66
2023/08/24 11:23:41;;;;;;;15.43;14.23;;;;;;;28.92;41.50;95082.84;6082763;28;109924;-67
2023/08/24 11:26:47;;;;;;;15.57;14.27;;;;;;;28.88;41.84;95085.44;6095430;28;109933;-67
2023/08/24 11:29:59;;;;;;;16.80;15.30;;;;;;;28.80;42.87;95077.53;6085105;28;109655;-70
2023/08/24 11:33:03;;;;;;;16.27;15.07;;;;;;;28.76;42.45;95084.75;6095174;28;109775;-67
2023/08/24 11:36:09;;;;;;;16.20;15.00;;;;;;;28.76;42.73;95090.94;6093477;28;109996;-69
2023/08/24 11:39:19;;;;;;;16.23;14.93;;;;;;;28.78;42.67;95096.75;6102471;28;109923;-68
2023/08/24 11:42:24;;;;;;;16.02;14.82;;;;;;;28.78;42.20;95104.06;6101206;28;109972;-67
2023/08/24 11:45:33;;;;;;;16.23;14.73;;;;;;;28.78;42.72;95104.84;6111382;28;113451;-67
2023/08/24 11:48:39;;;;;;;16.05;14.85;;;;;;;28.75;43.11;95102.06;6081246;28;109921;-68
2023/08/24 11:51:43;;;;;;;15.73;14.60;;;;;;;28.74;42.85;95087.81;6105358;28;109707;-68
2023/08/24 11:54:47;;;;;;;16.00;14.80;;;;;;;28.73;42.83;95082.75;6089616;28;109840;-67
2023/08/24 11:57:55;;;;;;;16.00;14.80;;;;;;;28.74;42.70;95078.94;6097768;28;109805;-68
2023/08/24 12:00:59;;;;;;;16.55;15.20;;;;;;;28.72;42.68;95078.47;6078657;28;110075;-67
2023/08/24 12:04:03;;;;;;;15.80;14.60;;;;;;;28.68;42.96;95075.72;6074881;28;109571;-67
2023/08/24 12:07:10;;;;;;;14.93;13.82;;;;;;;28.69;43.07;95077.28;6105660;28;109846;-67
2023/08/24 12:10:13;;;;;;;15.80;14.50;;;;;;;28.65;43.17;95063.72;6084111;28;109722;-67
2023/08/24 12:13:19;;;;;;;16.20;14.98;;;;;;;28.63;43.08;95060.59;6085808;28;109713;-68
2023/08/24 12:16:24;;;;;;;15.70;14.60;;;;;;;28.61;43.60;95054.00;6110506;28;109969;-65
2023/08/24 12:19:27;;;;;;;15.40;14.30;;;;;;;28.59;43.59;95054.34;6105085;28;109952;-68
2023/08/24 12:22:32;;;;;;;15.00;13.90;;;;;;;28.58;43.31;95060.09;6079049;28;109584;-67
2023/08/24 12:25:38;;;;;;;14.80;13.70;;;;;;;28.56;43.67;95068.50;6104581;28;109730;-68
2023/08/24 12:28:43;;;;;;;14.93;13.82;;;;;;;28.59;43.33;95085.88;6088807;28;110000;-69
2023/08/24 12:31:46;;;;;;;14.90;13.80;;;;;;;28.56;43.87;95095.44;6089061;28;110489;-67
2023/08/24 12:34:51;;;;;;;14.80;13.60;;;;;;;28.51;43.60;95095.69;6078130;28;109590;-68
2023/08/24 12:37:55;;;;;;;14.23;13.18;;;;;;;28.51;43.42;95094.91;6103152;28;110111;-67
2023/08/24 12:41:00;;;;;;;14.05;13.00;;;;;;;28.50;43.82;95099.50;6097545;28;109809;-68
2023/08/24 12:44:07;;;;;;;14.40;13.10;;;;;;;28.48;43.83;95088.31;6095894;28;109635;-68
2023/08/24 12:47:14;;;;;;;13.82;12.82;;;;;;;28.49;43.23;95092.56;6097332;28;111737;-67
2023/08/24 12:50:18;;;;;;;14.80;13.60;;;;;;;28.49;43.21;95092.56;6103980;28;109757;-68
2023/08/24 12:53:22;;;;;;;14.00;13.00;;;;;;;28.51;43.06;95106.44;6088957;28;109951;-68
2023/08/24 12:56:25;;;;;;;14.80;13.70;;;;;;;28.52;43.21;95118.78;6093601;28;109756;-68
2023/08/24 12:59:30;;;;;;;14.50;13.50;;;;;;;28.52;43.10;95118.78;6089032;28;110025;-68
2023/08/24 13:02:33;;;;;;;14.38;13.27;;;;;;;28.48;43.48;95109.84;6102933;28;110922;-67
2023/08/24 13:05:42;;;;;;;13.80;12.80;;;;;;;28.52;43.24;95110.69;6087228;28;110172;-68
2023/08/24 13:08:45;;;;;;;14.18;13.18;;;;;;;28.52;43.80;95115.31;6088918;28;109787;-68
2023/08/24 13:11:50;;;;;;;13.70;12.60;;;;;;;28.50;43.35;95106.78;6107955;28;111009;-67
2023/08/24 13:14:55;;;;;;;13.65;12.55;;;;;;;28.52;43.65;95110.69;6088734;28;112374;-67
2023/08/24 13:17:58;;;;;;;14.15;13.15;;;;;;;28.51;43.32;95111.06;6088648;28;111182;-70
2023/08/24 13:21:02;;;;;;;14.00;12.90;;;;;;;28.51;43.34;95106.44;6076994;28;109928;-69
2023/08/24 13:24:05;;;;;;;13.38;12.38;;;;;;;28.50;43.56;95107.56;6092946;28;109778;-69
2023/08/24 13:27:10;;;;;;;13.63;12.63;;;;;;;28.50;43.42;95096.81;6106663;28;109867;-67
2023/08/24 13:30:15;;;;;;;13.60;12.70;;;;;;;28.54;42.92;95108.44;6082165;28;109753;-68
2023/08/24 13:33:19;;;;;;;14.00;12.90;;;;;;;28.51;43.15;95109.16;6083831;28;109215;-66
2023/08/24 13:36:22;;;;;;;14.55;13.50;;;;;;;28.52;43.32;95097.25;6094100;28;110088;-66
2023/08/24 13:39:28;;;;;;;14.90;13.77;;;;;;;28.54;43.04;95104.97;6104526;28;112776;-67
2023/08/24 13:42:31;;;;;;;14.80;13.70;;;;;;;28.57;42.94;95107.00;6076632;28;109926;-66
2023/08/24 13:45:35;;;;;;;14.73;13.63;;;;;;;28.56;43.55;95108.91;6088134;28;109993;-68
2023/08/24 13:48:39;;;;;;;14.23;13.20;;;;;;;28.54;43.34;95107.66;6079961;28;109745;-66
2023/08/24 13:51:42;;;;;;;14.17;13.17;;;;;;;28.52;42.92;95113.41;6087719;28;109769;-67
2023/08/24 13:54:45;;;;;;;14.53;13.43;;;;;;;28.53;43.36;95106.88;6071774;28;111919;-68
2023/08/24 13:58:01;;;;;;;14.83;13.83;;;;;;;28.51;43.19;95109.16;6100542;28;109671;-67